Time;durP1;ratioP1;P1;durP2;ratioP2;P2;SDS_P1;SDS_P2;PMS_P1;PMS_P2;Temp;Humidity;BMP_temperature;BMP_pressure;BME280_temperature;BME280_humidity;BME280_pressure;Samples;Min_cycle;Max_cycle;Signal;HPM_P1;HPM_P2
2022/05/18 00:00:54;;;;;;;3.00;2.70;;;19.60;65.50;;;;;;935310;149;27429;-74
2022/05/18 00:03:21;;;;;;;2.98;2.77;;;19.60;65.60;;;;;;941747;149;27270;-74
2022/05/18 00:05:48;;;;;;;4.62;2.98;;;19.50;65.60;;;;;;941876;149;27378;-74
2022/05/18 00:08:14;;;;;;;3.08;2.83;;;19.50;66.70;;;;;;940694;149;27364;-74
2022/05/18 00:10:41;;;;;;;2.40;2.27;;;19.40;66.10;;;;;;941081;149;27298;-74
2022/05/18 00:13:07;;;;;;;3.47;3.17;;;19.40;66.20;;;;;;941287;149;27297;-74
2022/05/18 00:15:34;;;;;;;3.00;2.77;;;19.30;66.30;;;;;;941077;149;27452;-74
2022/05/18 00:18:00;;;;;;;3.25;3.00;;;19.30;66.60;;;;;;940772;149;27365;-75
2022/05/18 00:20:27;;;;;;;3.25;3.05;;;19.30;66.70;;;;;;941070;149;27429;-74
2022/05/18 00:22:54;;;;;;;3.40;3.10;;;19.30;66.80;;;;;;941280;149;27353;-74
2022/05/18 00:25:20;;;;;;;3.17;2.87;;;19.20;66.80;;;;;;941045;149;27326;-74
2022/05/18 00:27:47;;;;;;;5.28;2.72;;;19.20;67.00;;;;;;941913;149;27322;-74
2022/05/18 00:30:13;;;;;;;3.47;2.85;;;19.20;67.10;;;;;;941349;149;27290;-74
2022/05/18 00:32:40;;;;;;;2.80;2.60;;;19.20;67.20;;;;;;941140;149;27366;-74
2022/05/18 00:35:07;;;;;;;3.52;2.92;;;19.10;67.30;;;;;;941294;149;27465;-74
2022/05/18 00:37:34;;;;;;;4.10;2.92;;;19.10;67.40;;;;;;941402;149;27366;-74
2022/05/18 00:40:00;;;;;;;2.95;2.75;;;19.10;67.60;;;;;;941167;149;27310;-74
2022/05/18 00:42:27;;;;;;;3.10;2.85;;;19.10;67.80;;;;;;941090;149;27321;-74
2022/05/18 00:44:53;;;;;;;2.98;2.77;;;19.00;67.90;;;;;;941984;149;27479;-74
2022/05/18 00:47:20;;;;;;;3.58;2.98;;;19.00;68.10;;;;;;941402;149;27342;-74
2022/05/18 00:49:46;;;;;;;3.52;2.90;;;18.90;68.20;;;;;;940312;149;27357;-74
2022/05/18 00:52:13;;;;;;;3.15;2.85;;;18.90;68.40;;;;;;940114;149;27779;-74
2022/05/18 00:54:40;;;;;;;3.62;3.25;;;18.90;68.50;;;;;;932933;150;27292;-74
2022/05/18 00:57:15;;;;;;;3.52;3.00;;;18.90;68.70;;;;;;949840;147;27386;-74
2022/05/18 00:59:51;;;;;;;3.33;3.00;;;18.80;68.70;;;;;;944054;149;27448;-74
2022/05/18 01:02:18;;;;;;;3.05;2.85;;;18.80;68.80;;;;;;946321;148;27372;-74
2022/05/18 01:04:44;;;;;;;3.50;3.20;;;18.80;68.90;;;;;;963768;146;27354;-74
2022/05/18 01:07:17;;;;;;;3.27;3.08;;;18.70;69.00;;;;;;943359;149;27806;-74
2022/05/18 01:09:43;;;;;;;3.42;3.00;;;18.70;69.10;;;;;;957477;148;27437;-73
2022/05/18 01:12:10;;;;;;;3.50;3.17;;;18.70;69.20;;;;;;955526;149;27251;-74
2022/05/18 01:14:44;;;;;;;3.80;3.35;;;18.60;69.30;;;;;;957267;149;27363;-74
2022/05/18 01:17:09;;;;;;;3.12;2.92;;;18.60;69.50;;;;;;955891;149;28756;-74
2022/05/18 01:19:38;;;;;;;3.42;3.12;;;18.50;69.60;;;;;;957230;149;27361;-73
2022/05/18 01:22:10;;;;;;;3.45;3.15;;;18.50;69.80;;;;;;956829;149;27315;-74
2022/05/18 01:24:52;;;;;;;3.47;3.00;;;18.40;70.00;;;;;;958020;149;27343;-74
2022/05/18 01:27:18;;;;;;;3.20;3.00;;;18.40;70.10;;;;;;957590;149;27793;-74
2022/05/18 01:29:45;;;;;;;3.55;2.92;;;18.30;70.30;;;;;;943660;149;27322;-74
2022/05/18 01:32:14;;;;;;;3.27;2.98;;;18.30;70.60;;;;;;957867;149;27310;-74
2022/05/18 01:34:42;;;;;;;4.05;3.08;;;18.20;70.90;;;;;;958245;149;27417;-74
2022/05/18 01:37:10;;;;;;;4.80;3.50;;;18.20;71.10;;;;;;965143;146;27346;-74
2022/05/18 01:39:37;;;;;;;3.55;3.10;;;18.10;71.40;;;;;;965072;146;27352;-74
2022/05/18 01:42:06;;;;;;;4.22;3.20;;;18.10;71.40;;;;;;957268;146;27380;-74
2022/05/18 01:44:35;;;;;;;3.40;3.20;;;18.10;71.70;;;;;;963518;146;27403;-75
2022/05/18 01:47:02;;;;;;;3.80;3.50;;;18.00;71.80;;;;;;946729;149;27375;-75
2022/05/18 01:49:29;;;;;;;3.60;3.37;;;17.90;72.30;;;;;;947537;149;27297;-75
2022/05/18 01:51:55;;;;;;;3.62;3.33;;;17.90;72.00;;;;;;957901;147;27363;-75
2022/05/18 01:54:22;;;;;;;3.83;3.53;;;17.90;71.30;;;;;;965305;146;27280;-75
2022/05/18 01:56:48;;;;;;;3.53;3.23;;;17.80;72.30;;;;;;965938;146;27891;-75
2022/05/18 01:59:15;;;;;;;3.17;2.98;;;17.70;72.50;;;;;;947318;148;27420;-75
2022/05/18 02:01:42;;;;;;;3.95;3.65;;;17.70;72.90;;;;;;954018;147;27356;-75
2022/05/18 02:04:08;;;;;;;4.97;3.53;;;17.60;73.10;;;;;;945558;148;27348;-75
2022/05/18 02:06:35;;;;;;;3.22;3.02;;;17.60;73.30;;;;;;951759;148;27312;-75
2022/05/18 02:09:01;;;;;;;3.60;3.27;;;17.60;73.60;;;;;;952006;148;27307;-75
2022/05/18 02:11:28;;;;;;;3.23;2.93;;;17.50;73.80;;;;;;969227;145;27455;-75
2022/05/18 02:13:55;;;;;;;4.30;3.80;;;17.50;74.10;;;;;;969889;145;27345;-76
2022/05/18 02:16:21;;;;;;;3.00;2.80;;;17.50;74.50;;;;;;969604;145;27407;-76
2022/05/18 02:18:48;;;;;;;4.13;3.73;;;17.40;74.60;;;;;;951986;148;27359;-76
2022/05/18 02:21:14;;;;;;;3.93;3.57;;;17.40;74.70;;;;;;952301;148;27335;-76
2022/05/18 02:23:41;;;;;;;3.60;3.30;;;17.40;75.00;;;;;;955963;147;27327;-76
2022/05/18 02:26:07;;;;;;;3.93;3.60;;;17.40;75.20;;;;;;950447;148;27365;-76
2022/05/18 02:28:34;;;;;;;4.13;3.53;;;17.30;75.20;;;;;;951824;148;27343;-76
2022/05/18 02:31:01;;;;;;;3.33;3.02;;;17.30;75.30;;;;;;952667;148;27319;-75
2022/05/18 02:33:27;;;;;;;3.80;3.50;;;17.30;75.70;;;;;;968999;145;27347;-76
2022/05/18 02:35:54;;;;;;;3.55;3.27;;;17.30;76.10;;;;;;968708;145;27251;-76
2022/05/18 02:38:20;;;;;;;3.67;3.20;;;17.30;76.50;;;;;;951008;148;27472;-76
2022/05/18 02:40:47;;;;;;;3.62;3.33;;;17.20;76.50;;;;;;952212;148;27352;-75
2022/05/18 02:43:14;;;;;;;4.40;4.00;;;17.20;76.70;;;;;;969219;145;27405;-76
2022/05/18 02:45:40;;;;;;;3.97;3.67;;;17.20;77.10;;;;;;952402;147;27326;-75
2022/05/18 02:48:08;;;;;;;4.10;3.70;;;17.20;77.20;;;;;;949953;148;27335;-76
2022/05/18 02:50:35;;;;;;;3.87;3.47;;;17.20;77.40;;;;;;951637;148;27361;-76
2022/05/18 02:53:01;;;;;;;4.30;3.90;;;17.10;77.40;;;;;;969862;145;27442;-76
2022/05/18 02:58:13;;;;;;;4.60;4.20;;;17.10;77.80;;;;;;969266;145;27341;-75
2022/05/18 03:00:40;;;;;;;4.12;3.75;;;17.10;78.00;;;;;;962125;145;27489;-75
2022/05/18 03:03:06;;;;;;;3.87;3.57;;;17.10;78.30;;;;;;951051;147;27398;-75
2022/05/18 03:05:32;;;;;;;5.33;4.30;;;17.00;78.40;;;;;;932631;150;27357;-75
2022/05/18 03:07:59;;;;;;;4.80;4.33;;;17.00;78.70;;;;;;950764;147;27257;-75
2022/05/18 03:10:25;;;;;;;4.03;3.73;;;17.00;78.90;;;;;;950356;147;27363;-75
2022/05/18 03:12:52;;;;;;;4.53;3.77;;;17.00;79.10;;;;;;950845;147;27328;-75
2022/05/18 03:15:19;;;;;;;4.00;3.70;;;16.90;79.20;;;;;;934991;149;27431;-75
2022/05/18 03:17:46;;;;;;;6.27;3.67;;;16.90;79.30;;;;;;928155;150;27329;-75
2022/05/18 03:23:33;;;;;;;3.27;3.08;;;16.80;79.40;;;;;;927025;150;27315;-75
2022/05/18 03:25:23;;;;;;;4.30;3.90;;;16.80;79.70;;;;;;950772;147;27388;-75
2022/05/18 03:27:50;;;;;;;3.57;3.27;;;16.80;79.90;;;;;;933800;150;27306;-75
2022/05/18 03:30:16;;;;;;;3.67;3.23;;;16.70;80.20;;;;;;950563;147;27385;-75
2022/05/18 03:32:44;;;;;;;5.10;3.23;;;16.70;80.30;;;;;;950054;146;27396;-75
2022/05/18 03:35:09;;;;;;;3.93;3.23;;;16.70;80.60;;;;;;950436;146;27749;-75
2022/05/18 03:37:36;;;;;;;3.27;2.97;;;16.60;80.70;;;;;;949188;146;27368;-75
2022/05/18 03:40:02;;;;;;;3.13;2.93;;;16.60;80.90;;;;;;949445;146;28840;-75
2022/05/18 03:42:29;;;;;;;4.37;3.97;;;16.60;81.10;;;;;;949790;146;27438;-74
2022/05/18 03:45:13;;;;;;;3.67;3.20;;;16.50;81.30;;;;;;927118;150;27380;-75
2022/05/18 03:47:42;;;;;;;3.57;3.10;;;16.50;81.50;;;;;;927569;151;27435;-75
2022/05/18 03:50:07;;;;;;;3.40;3.10;;;16.50;81.60;;;;;;936901;149;27521;-75
2022/05/18 03:52:33;;;;;;;3.17;2.87;;;16.50;81.90;;;;;;950967;147;27503;-75
2022/05/18 03:55:00;;;;;;;4.60;4.07;;;16.50;82.10;;;;;;950842;147;27401;-75
2022/05/18 03:57:26;;;;;;;3.53;3.23;;;16.50;82.40;;;;;;950847;147;27400;-75
2022/05/18 03:59:53;;;;;;;5.67;3.70;;;16.50;82.70;;;;;;950955;147;27414;-75
2022/05/18 04:02:20;;;;;;;3.40;3.13;;;16.50;83.00;;;;;;966425;145;27535;-75
2022/05/18 04:04:46;;;;;;;6.20;3.50;;;16.50;83.30;;;;;;969231;145;27346;-75
2022/05/18 04:07:13;;;;;;;3.63;3.33;;;16.50;83.40;;;;;;969451;145;27456;-75
2022/05/18 04:09:39;;;;;;;3.30;3.10;;;16.50;83.60;;;;;;968767;145;27302;-74
2022/05/18 04:12:06;;;;;;;3.80;3.50;;;16.50;83.60;;;;;;969429;145;28022;-75
2022/05/18 04:14:33;;;;;;;4.10;3.27;;;16.50;83.80;;;;;;967746;145;27423;-74
2022/05/18 04:19:39;;;;;;;3.83;3.53;;;16.60;84.20;;;;;;971573;144;35457;-74
2022/05/18 04:22:06;;;;;;;3.67;3.40;;;16.70;85.50;;;;;;949897;148;27359;-74
2022/05/18 04:24:32;;;;;;;5.93;4.33;;;16.70;85.60;;;;;;948867;146;27436;-74
2022/05/18 04:26:59;;;;;;;5.10;4.40;;;16.80;85.10;;;;;;949509;149;27264;-74
2022/05/18 04:29:26;;;;;;;4.47;4.07;;;16.80;86.10;;;;;;949297;149;27381;-74
2022/05/18 04:31:52;;;;;;;6.27;3.90;;;16.90;86.40;;;;;;950080;149;27383;-73
2022/05/18 04:34:21;;;;;;;4.30;3.90;;;17.00;86.50;;;;;;949987;148;27370;-74
2022/05/18 04:36:45;;;;;;;4.30;3.57;;;17.00;86.80;;;;;;950602;149;27432;-73
2022/05/18 04:39:12;;;;;;;4.47;4.15;;;17.10;87.00;;;;;;949046;149;27302;-74
2022/05/18 04:41:39;;;;;;;4.30;4.00;;;17.20;87.10;;;;;;950321;149;27307;-74
2022/05/18 04:44:05;;;;;;;4.87;4.37;;;17.30;87.60;;;;;;948464;146;27333;-74
2022/05/18 04:46:32;;;;;;;4.62;4.10;;;17.40;88.00;;;;;;950230;149;27397;-74
2022/05/18 04:48:58;;;;;;;4.40;4.03;;;17.50;88.50;;;;;;951435;149;27683;-74
2022/05/18 04:51:25;;;;;;;4.62;4.20;;;17.70;89.20;;;;;;947951;148;27383;-74
2022/05/18 04:53:51;;;;;;;4.40;4.00;;;17.90;90.40;;;;;;946575;151;27290;-74
2022/05/18 04:56:18;;;;;;;5.03;3.87;;;18.20;91.20;;;;;;946376;150;27300;-74
2022/05/18 04:58:45;;;;;;;4.25;3.85;;;18.50;91.80;;;;;;946698;149;27416;-74
2022/05/18 05:01:11;;;;;;;4.15;3.85;;;18.90;92.10;;;;;;945741;151;27339;-74
2022/05/18 05:03:38;;;;;;;4.20;3.80;;;19.40;92.30;;;;;;947021;151;27456;-74
2022/05/18 05:06:04;;;;;;;4.97;4.58;;;20.00;92.50;;;;;;947035;150;27303;-74
2022/05/18 05:08:31;;;;;;;5.33;4.67;;;20.60;92.40;;;;;;947091;151;27312;-74
2022/05/18 05:10:58;;;;;;;4.00;3.70;;;21.30;91.90;;;;;;947169;151;27288;-74
2022/05/18 05:13:25;;;;;;;4.10;3.80;;;22.00;91.30;;;;;;947331;150;27787;-75
2022/05/18 05:15:54;;;;;;;4.78;4.33;;;22.80;90.60;;;;;;946415;151;27327;-75
2022/05/18 05:18:17;;;;;;;3.55;3.25;;;23.50;89.10;;;;;;947935;150;28493;-75
2022/05/18 05:20:44;;;;;;;3.92;3.62;;;24.40;86.30;;;;;;953795;148;27311;-75
2022/05/18 05:23:11;;;;;;;3.70;3.37;;;25.20;83.50;;;;;;953976;148;27692;-75
2022/05/18 05:25:37;;;;;;;3.80;3.47;;;26.00;80.90;;;;;;953325;149;27311;-75
2022/05/18 05:28:04;;;;;;;3.90;3.60;;;26.80;77.80;;;;;;953745;150;27335;-75
2022/05/18 05:30:30;;;;;;;3.58;3.20;;;27.70;74.80;;;;;;953046;148;27331;-75
2022/05/18 05:32:57;;;;;;;4.12;3.22;;;28.50;71.80;;;;;;953671;148;27310;-75
2022/05/18 05:35:23;;;;;;;3.42;3.12;;;29.20;68.90;;;;;;952632;149;27376;-75
2022/05/18 05:37:50;;;;;;;3.42;3.10;;;29.80;66.40;;;;;;963748;146;27303;-75
2022/05/18 05:40:17;;;;;;;3.15;2.85;;;30.50;64.50;;;;;;963486;146;27292;-75
2022/05/18 05:42:43;;;;;;;3.15;2.83;;;31.00;62.90;;;;;;945615;149;27800;-75
2022/05/18 05:45:10;;;;;;;3.40;3.10;;;31.60;61.70;;;;;;946583;149;28332;-75
2022/05/18 05:47:36;;;;;;;4.33;3.22;;;32.20;60.10;;;;;;940565;149;27342;-75
2022/05/18 05:50:03;;;;;;;3.62;3.00;;;32.70;58.90;;;;;;950661;149;28154;-76
2022/05/18 05:52:30;;;;;;;2.92;2.67;;;33.30;57.70;;;;;;946367;149;27449;-75
2022/05/18 05:54:56;;;;;;;3.00;2.70;;;33.80;56.10;;;;;;964157;146;27472;-75
2022/05/18 05:57:23;;;;;;;2.60;2.40;;;34.30;55.40;;;;;;962208;146;26251;-75
2022/05/18 05:59:49;;;;;;;2.75;2.55;;;34.80;54.30;;;;;;950036;151;27303;-75
2022/05/18 06:02:16;;;;;;;3.52;2.72;;;35.10;53.50;;;;;;945831;149;26330;-75
2022/05/18 06:04:43;;;;;;;3.00;2.30;;;35.60;52.70;;;;;;953844;149;27326;-75
2022/05/18 06:07:09;;;;;;;2.30;2.10;;;36.00;51.90;;;;;;962899;146;26255;-75
2022/05/18 06:09:36;;;;;;;2.33;2.10;;;36.30;50.80;;;;;;950260;149;26236;-74
2022/05/18 06:12:02;;;;;;;2.45;2.10;;;36.70;50.10;;;;;;963138;146;27311;-74
2022/05/18 06:14:29;;;;;;;2.98;2.10;;;37.00;49.20;;;;;;962700;146;27676;-75
2022/05/18 06:16:55;;;;;;;2.05;1.87;;;37.30;48.30;;;;;;962352;146;26216;-75
2022/05/18 06:19:22;;;;;;;2.00;1.80;;;37.50;47.50;;;;;;940557;149;26283;-75
2022/05/18 06:21:50;;;;;;;2.52;1.60;;;37.70;46.90;;;;;;932749;150;26310;-75
2022/05/18 06:24:15;;;;;;;2.02;1.92;;;37.80;46.30;;;;;;932062;150;26376;-75
2022/05/18 06:26:42;;;;;;;3.05;1.90;;;37.90;45.80;;;;;;926836;150;27833;-75
2022/05/18 06:29:08;;;;;;;2.20;2.00;;;38.10;45.70;;;;;;943600;148;26683;-75
2022/05/18 06:31:35;;;;;;;1.70;1.57;;;38.30;45.30;;;;;;943330;148;27408;-75
2022/05/18 06:34:02;;;;;;;2.27;1.70;;;38.50;44.50;;;;;;944333;148;26258;-75
2022/05/18 06:36:30;;;;;;;2.10;1.90;;;38.70;44.40;;;;;;934758;150;26289;-75
2022/05/18 06:38:55;;;;;;;1.75;1.62;;;39.00;43.60;;;;;;944189;148;26315;-75
2022/05/18 06:41:21;;;;;;;2.52;1.62;;;39.20;43.40;;;;;;944382;148;26303;-76
2022/05/18 06:43:48;;;;;;;1.70;1.60;;;39.40;42.90;;;;;;944316;148;26358;-75
2022/05/18 06:46:15;;;;;;;2.47;1.85;;;39.60;42.50;;;;;;930886;150;26285;-75
2022/05/18 06:48:41;;;;;;;2.05;1.82;;;39.90;42.00;;;;;;942075;149;26354;-75
2022/05/18 06:51:08;;;;;;;1.92;1.60;;;40.10;41.50;;;;;;942143;149;26338;-76
2022/05/18 06:53:34;;;;;;;1.72;1.55;;;40.30;41.00;;;;;;941280;149;26306;-75
2022/05/18 06:56:01;;;;;;;2.25;1.70;;;40.60;40.50;;;;;;942367;149;26198;-75
2022/05/18 06:58:27;;;;;;;3.47;2.10;;;40.80;40.10;;;;;;942273;149;26250;-76
2022/05/18 07:00:54;;;;;;;1.80;1.70;;;41.00;39.90;;;;;;942569;149;26363;-75
2022/05/18 07:03:21;;;;;;;1.87;1.77;;;41.30;39.50;;;;;;942853;149;28532;-75
2022/05/18 07:05:47;;;;;;;2.10;1.90;;;41.60;39.00;;;;;;928057;152;26228;-75
2022/05/18 07:08:14;;;;;;;1.90;1.75;;;41.90;38.50;;;;;;943749;149;26253;-76
2022/05/18 07:10:40;;;;;;;2.90;2.08;;;42.20;38.00;;;;;;932939;150;26244;-76
2022/05/18 07:13:07;;;;;;;2.27;2.00;;;42.50;37.50;;;;;;942308;149;26658;-76
2022/05/18 07:15:34;;;;;;;2.47;1.80;;;42.70;37.00;;;;;;942143;149;26358;-76
2022/05/18 07:18:00;;;;;;;2.25;1.60;;;43.10;37.30;;;;;;943020;149;26241;-76
2022/05/18 07:20:27;;;;;;;1.92;1.52;;;43.30;36.20;;;;;;936587;149;26289;-76
2022/05/18 07:22:53;;;;;;;2.00;1.77;;;43.60;35.80;;;;;;945623;149;26222;-76
2022/05/18 07:25:20;;;;;;;1.92;1.40;;;43.80;35.00;;;;;;928432;152;26239;-76
2022/05/18 07:27:47;;;;;;;5.65;1.60;;;44.00;34.40;;;;;;929636;154;26365;-76
2022/05/18 07:30:15;;;;;;;2.58;1.70;;;44.20;34.00;;;;;;930332;154;26260;-76
2022/05/18 07:32:40;;;;;;;2.05;1.62;;;44.30;33.60;;;;;;935174;151;26183;-76
2022/05/18 07:35:06;;;;;;;1.55;1.45;;;44.40;33.20;;;;;;929907;154;26226;-76
2022/05/18 07:37:33;;;;;;;3.08;1.70;;;44.50;32.90;;;;;;928903;154;26232;-76
2022/05/18 07:39:59;;;;;;;2.72;1.95;;;44.50;32.20;;;;;;932181;151;26289;-76
2022/05/18 07:42:26;;;;;;;1.60;1.50;;;44.60;32.80;;;;;;946158;151;26245;-76
2022/05/18 07:44:53;;;;;;;2.37;1.70;;;44.60;32.30;;;;;;930458;154;26370;-76
2022/05/18 07:47:20;;;;;;;2.50;1.90;;;44.70;32.30;;;;;;933648;151;26338;-76
2022/05/18 07:49:46;;;;;;;2.22;2.02;;;44.80;31.90;;;;;;945026;149;26196;-76
2022/05/18 07:52:12;;;;;;;2.20;2.00;;;45.00;31.20;;;;;;945708;149;26394;-76
2022/05/18 07:54:39;;;;;;;2.15;1.95;;;45.10;31.10;;;;;;928748;154;26275;-76
2022/05/18 07:57:09;;;;;;;2.10;1.87;;;45.20;30.90;;;;;;925921;155;26183;-76
2022/05/18 07:59:35;;;;;;;2.08;1.87;;;45.20;30.50;;;;;;929444;151;26277;-76
2022/05/18 08:02:02;;;;;;;2.95;1.80;;;45.20;30.10;;;;;;944857;149;26237;-75
2022/05/18 08:04:28;;;;;;;1.57;1.47;;;45.20;30.00;;;;;;928809;154;26202;-76
2022/05/18 08:06:55;;;;;;;3.30;1.92;;;45.10;30.00;;;;;;928296;152;26276;-76
2022/05/18 08:09:22;;;;;;;2.08;1.87;;;45.00;30.00;;;;;;945731;151;27920;-76
2022/05/18 08:17:17;;;;;;;1.77;1.52;;;45.10;30.00;;;;;;945835;149;26238;-76
2022/05/18 08:19:44;;;;;;;2.15;1.67;;;45.20;29.80;;;;;;945538;149;26358;-76
2022/05/18 08:22:10;;;;;;;2.02;1.62;;;45.20;29.60;;;;;;928741;151;26286;-76
2022/05/18 08:24:37;;;;;;;3.50;2.22;;;45.30;29.60;;;;;;929554;154;26180;-76
2022/05/18 08:27:04;;;;;;;2.00;1.90;;;45.50;29.50;;;;;;930656;152;26234;-76
2022/05/18 08:29:30;;;;;;;1.85;1.60;;;45.50;29.10;;;;;;931075;154;26254;-76
2022/05/18 08:31:57;;;;;;;3.92;1.95;;;45.70;29.00;;;;;;947758;150;26341;-76
2022/05/18 08:34:23;;;;;;;2.02;1.70;;;45.70;29.00;;;;;;928911;154;26382;-76
2022/05/18 08:36:50;;;;;;;1.77;1.50;;;45.70;28.70;;;;;;945519;151;26209;-76
2022/05/18 08:39:16;;;;;;;2.25;1.57;;;45.70;28.70;;;;;;934593;151;26304;-76
2022/05/18 08:41:44;;;;;;;4.00;1.50;;;45.70;28.30;;;;;;945991;151;26174;-76
2022/05/18 08:44:10;;;;;;;2.58;1.70;;;45.70;28.50;;;;;;946034;151;26762;-76
2022/05/18 08:46:45;;;;;;;3.95;1.95;;;45.70;28.40;;;;;;930427;153;26343;-76
2022/05/18 08:49:20;;;;;;;1.87;1.35;;;45.70;28.40;;;;;;928630;152;26254;-76
2022/05/18 08:51:48;;;;;;;2.05;1.50;;;45.80;28.00;;;;;;928549;153;26383;-76
2022/05/18 08:54:47;;;;;;;2.90;1.77;;;45.90;28.00;;;;;;928287;153;26365;-76
2022/05/18 08:57:19;;;;;;;2.95;1.55;;;46.00;27.70;;;;;;929407;154;26340;-76
2022/05/18 08:59:46;;;;;;;2.22;1.37;;;46.00;27.60;;;;;;930430;153;26373;-76
2022/05/18 09:02:12;;;;;;;1.50;1.40;;;46.00;27.40;;;;;;930389;154;26245;-76
2022/05/18 09:05:00;;;;;;;1.72;1.27;;;45.90;27.30;;;;;;929891;153;26213;-76
2022/05/18 09:07:27;;;;;;;1.85;1.67;;;45.90;27.20;;;;;;930386;154;27941;-76
2022/05/18 09:12:38;;;;;;;2.25;1.40;;;46.10;27.30;;;;;;945383;151;26460;-76
2022/05/18 09:15:05;;;;;;;1.40;1.30;;;46.20;27.10;;;;;;945673;151;26312;-76
2022/05/18 09:17:37;;;;;;;3.55;1.40;;;46.20;27.10;;;;;;928590;152;26364;-76
2022/05/18 09:20:06;;;;;;;1.87;1.35;;;46.30;27.00;;;;;;925376;155;26316;-76
2022/05/18 09:22:38;;;;;;;1.80;1.20;;;46.40;27.00;;;;;;932365;150;26265;-77
2022/05/18 09:25:17;;;;;;;1.47;1.32;;;46.50;26.70;;;;;;909883;154;26373;-76
2022/05/18 09:27:46;;;;;;;1.47;0.80;;;46.60;26.60;;;;;;947142;148;26259;-76
2022/05/18 09:30:19;;;;;;;1.37;1.27;;;46.70;26.50;;;;;;947872;148;26283;-76
2022/05/18 09:32:51;;;;;;;1.70;1.60;;;46.70;26.10;;;;;;931676;151;26271;-76
2022/05/18 09:35:39;;;;;;;1.50;1.20;;;46.70;25.70;;;;;;940556;149;26260;-76
2022/05/18 09:38:05;;;;;;;3.47;1.35;;;46.40;25.50;;;;;;948912;149;26301;-76
2022/05/18 09:40:35;;;;;;;1.85;1.02;;;46.20;25.60;;;;;;947774;149;26225;-76
2022/05/18 09:43:01;;;;;;;1.00;0.95;;;46.00;25.60;;;;;;947637;150;26268;-76
2022/05/18 09:45:29;;;;;;;2.95;1.25;;;45.70;25.50;;;;;;929067;151;26277;-76
2022/05/18 09:47:57;;;;;;;1.25;1.15;;;45.60;25.60;;;;;;929788;151;26246;-76
2022/05/18 09:50:24;;;;;;;2.83;1.20;;;45.40;25.50;;;;;;934354;150;26302;-76
2022/05/18 09:52:50;;;;;;;1.12;1.02;;;45.20;25.60;;;;;;938996;150;26273;-76
2022/05/18 09:55:17;;;;;;;1.60;1.37;;;45.00;26.00;;;;;;942816;149;26686;-76
2022/05/18 09:58:07;;;;;;;1.80;1.20;;;44.70;25.40;;;;;;942535;149;26384;-76
2022/05/18 10:00:34;;;;;;;4.33;1.42;;;44.30;25.40;;;;;;948843;148;26320;-76
2022/05/18 10:08:36;;;;;;;2.10;1.20;;;42.90;26.00;;;;;;945466;151;26291;-77
2022/05/18 10:11:09;;;;;;;1.37;1.27;;;42.40;26.10;;;;;;945431;151;26256;-76
2022/05/18 10:13:34;;;;;;;1.05;1.05;;;42.10;26.20;;;;;;944897;151;26220;-77
2022/05/18 10:16:07;;;;;;;1.75;1.15;;;41.80;26.30;;;;;;944693;151;26233;-77
2022/05/18 10:18:46;;;;;;;1.52;1.42;;;41.50;26.30;;;;;;943909;148;27442;-76
2022/05/18 10:21:12;;;;;;;1.35;1.20;;;41.20;26.40;;;;;;944534;151;26268;-76
2022/05/18 10:24:06;;;;;;;3.02;1.27;;;40.90;26.30;;;;;;940202;151;26197;-76
2022/05/18 10:26:39;;;;;;;2.02;1.05;;;40.60;26.20;;;;;;929800;152;26225;-76
2022/05/18 10:29:08;;;;;;;1.57;1.22;;;40.10;26.30;;;;;;940082;152;26292;-76
2022/05/18 10:31:35;;;;;;;1.20;1.10;;;39.60;26.40;;;;;;937640;151;27327;-76
2022/05/18 10:34:17;;;;;;;1.00;0.95;;;39.00;26.60;;;;;;939571;149;26253;-76
2022/05/18 10:36:43;;;;;;;1.52;1.05;;;38.40;26.80;;;;;;927908;150;27380;-76
2022/05/18 10:39:10;;;;;;;1.32;1.20;;;37.90;26.90;;;;;;941711;149;28455;-77
2022/05/18 10:41:42;;;;;;;0.98;0.98;;;37.50;27.20;;;;;;941785;149;27321;-76
2022/05/18 10:44:11;;;;;;;7.22;1.00;;;37.10;27.60;;;;;;942010;149;27342;-76
2022/05/18 10:46:44;;;;;;;1.40;1.30;;;36.80;27.90;;;;;;941384;149;27503;-76
2022/05/18 10:49:29;;;;;;;1.30;1.20;;;36.40;27.90;;;;;;941598;149;27878;-76
2022/05/18 10:51:55;;;;;;;1.55;1.27;;;36.10;27.80;;;;;;942576;149;27378;-76
2022/05/18 10:54:25;;;;;;;1.65;1.07;;;35.70;27.90;;;;;;940561;149;27438;-76
2022/05/18 10:56:51;;;;;;;1.55;1.30;;;35.40;28.40;;;;;;941620;149;27350;-76
2022/05/18 10:59:21;;;;;;;2.12;1.25;;;35.10;28.70;;;;;;942151;149;27358;-76
2022/05/18 11:01:54;;;;;;;1.92;1.30;;;34.80;28.80;;;;;;941248;149;27357;-76
2022/05/18 11:04:19;;;;;;;2.45;1.30;;;34.60;29.00;;;;;;942060;149;27347;-76
2022/05/18 11:06:46;;;;;;;2.27;1.00;;;34.50;29.30;;;;;;941598;149;27347;-76
2022/05/18 11:09:18;;;;;;;2.65;1.07;;;34.30;29.40;;;;;;942410;149;27447;-76
2022/05/18 11:11:55;;;;;;;0.85;0.82;;;34.20;29.30;;;;;;942006;149;27351;-76
2022/05/18 11:14:38;;;;;;;1.85;1.15;;;34.20;29.60;;;;;;941805;149;27322;-76
2022/05/18 11:17:23;;;;;;;1.47;0.98;;;34.20;29.80;;;;;;927486;150;27430;-76
2022/05/18 11:20:01;;;;;;;1.82;1.30;;;34.20;30.00;;;;;;927741;150;27754;-76
2022/05/18 11:22:49;;;;;;;1.45;1.35;;;34.10;29.80;;;;;;926602;150;27496;-76
2022/05/18 11:25:24;;;;;;;1.42;1.00;;;34.10;29.80;;;;;;940724;149;27343;-76
2022/05/18 11:27:51;;;;;;;1.45;1.05;;;34.00;29.80;;;;;;941228;149;27350;-76
2022/05/18 11:30:33;;;;;;;1.32;1.10;;;34.00;29.90;;;;;;928273;150;27413;-76
2022/05/18 11:33:15;;;;;;;1.45;1.20;;;33.90;30.20;;;;;;941366;149;27378;-76
2022/05/18 11:35:57;;;;;;;1.55;1.10;;;33.80;30.30;;;;;;941699;149;27370;-75
2022/05/18 11:38:44;;;;;;;1.75;1.05;;;33.80;30.10;;;;;;929796;150;27857;-76
2022/05/18 11:41:23;;;;;;;0.85;0.78;;;33.80;30.00;;;;;;943639;148;27430;-76
2022/05/18 11:44:08;;;;;;;1.10;1.10;;;33.70;30.00;;;;;;944517;148;27334;-76
2022/05/18 11:46:40;;;;;;;2.95;1.20;;;33.70;30.20;;;;;;942552;149;28207;-76
2022/05/18 11:49:25;;;;;;;1.42;1.15;;;33.60;30.50;;;;;;941923;150;27399;-76
2022/05/18 11:51:57;;;;;;;1.65;1.20;;;33.50;30.60;;;;;;941885;149;27371;-76
2022/05/18 11:54:32;;;;;;;0.93;0.90;;;33.50;30.70;;;;;;942143;149;27953;-76
2022/05/18 11:57:05;;;;;;;1.27;1.17;;;33.40;31.00;;;;;;941283;149;27327;-76
2022/05/18 11:59:46;;;;;;;1.52;1.35;;;33.40;30.90;;;;;;941883;149;27439;-77
2022/05/18 12:02:15;;;;;;;1.55;1.07;;;33.40;31.00;;;;;;942037;149;27401;-76
2022/05/18 12:04:59;;;;;;;1.75;1.20;;;33.40;31.10;;;;;;927966;152;27811;-76
2022/05/18 12:07:31;;;;;;;1.15;0.88;;;33.30;31.30;;;;;;943698;149;27337;-76
2022/05/18 12:10:04;;;;;;;2.83;1.22;;;33.20;31.20;;;;;;944251;149;27362;-76
2022/05/18 12:12:42;;;;;;;1.20;1.10;;;33.10;31.30;;;;;;933645;150;27361;-76
2022/05/18 12:15:09;;;;;;;2.00;0.95;;;33.10;31.30;;;;;;938938;150;27428;-76
2022/05/18 12:17:47;;;;;;;1.72;1.10;;;33.10;31.30;;;;;;938676;150;27845;-76
2022/05/18 12:20:35;;;;;;;1.52;1.25;;;33.00;31.40;;;;;;939380;150;27312;-76
2022/05/18 12:23:02;;;;;;;2.15;1.40;;;33.00;31.60;;;;;;895956;156;27585;-76
2022/05/18 12:25:28;;;;;;;1.55;1.45;;;32.90;31.60;;;;;;879689;160;27474;-76
2022/05/18 12:27:55;;;;;;;0.82;0.82;;;32.80;31.70;;;;;;887960;153;27335;-76
2022/05/18 12:30:21;;;;;;;1.92;1.40;;;32.70;32.00;;;;;;934582;151;27354;-76
2022/05/18 12:32:48;;;;;;;1.82;1.50;;;32.70;32.10;;;;;;937131;151;27471;-76
2022/05/18 12:35:33;;;;;;;1.37;1.12;;;32.60;32.30;;;;;;934831;151;27370;-76
2022/05/18 12:38:05;;;;;;;1.30;1.20;;;32.60;32.40;;;;;;935422;151;27345;-76
2022/05/18 12:40:34;;;;;;;2.10;1.10;;;32.50;32.30;;;;;;935166;151;27314;-76
2022/05/18 12:43:22;;;;;;;1.75;1.30;;;32.50;32.40;;;;;;935365;151;27383;-76
2022/05/18 12:45:48;;;;;;;1.40;1.30;;;32.50;32.60;;;;;;935614;150;27331;-75
2022/05/18 12:48:21;;;;;;;2.77;1.50;;;32.50;32.60;;;;;;935682;150;27406;-76
2022/05/18 12:51:08;;;;;;;2.90;1.40;;;32.50;32.60;;;;;;933853;150;27424;-76
2022/05/18 12:53:44;;;;;;;1.35;1.25;;;32.50;32.80;;;;;;919860;153;27391;-76
2022/05/18 12:56:26;;;;;;;1.75;1.07;;;32.60;33.00;;;;;;930594;152;27368;-76
2022/05/18 12:58:58;;;;;;;1.57;1.20;;;32.60;33.10;;;;;;932775;150;27413;-76
2022/05/18 13:01:25;;;;;;;1.10;1.10;;;32.60;33.00;;;;;;935934;150;27466;-76
2022/05/18 13:03:57;;;;;;;1.67;1.22;;;32.60;33.10;;;;;;934819;150;27370;-76
2022/05/18 13:06:36;;;;;;;1.82;1.50;;;32.70;33.30;;;;;;930202;150;27802;-76
2022/05/18 13:09:22;;;;;;;1.30;1.20;;;32.70;33.30;;;;;;936910;150;27273;-75
2022/05/18 13:11:48;;;;;;;1.40;1.30;;;32.70;33.30;;;;;;940295;150;27359;-76
2022/05/18 13:14:18;;;;;;;1.30;1.20;;;32.70;33.30;;;;;;937857;150;27320;-76
2022/05/18 13:16:44;;;;;;;2.45;1.30;;;32.70;33.10;;;;;;937433;150;27326;-76
2022/05/18 13:19:14;;;;;;;1.30;1.20;;;32.70;33.00;;;;;;918149;150;27472;-76